Dwyer, Mississippi
Current Conditions -  °F | °C
As of 12:15 PM on Saturday 25 Oct 2014 (Local Time) from KRNV Reporting Station
Clear Clear  
Wind Chill: 77°   Ceiling: Unl
Heat Index: 79°   Visibility: 10mi
Dew Point: 62°   Wind: 8mph
Humidity: 60%   Direction: 270°W
Pressure: 30.12"   Gusts: NA
Location:  33.5869°N, 90.6257°W
Report Text: KRNV 251715Z AUTO 27007KT 250V320 10SM CLR 25/17 A3012 RMK AO2 T02500167
Loading
Personal Weather Stations






























Interactive Weather Map
Tropical Storm Tracking
New forecast layout! Learn more

10-Day Weather Forecast

Advertisements
Track Severe Weather on mobile